createdAt,value
2023-05-13T00:03:15.532Z,99320.81
2023-05-13T00:07:18.508Z,99324.38
2023-05-13T00:11:22.779Z,99315.56
2023-05-13T00:15:25.414Z,99316.25
2023-05-13T00:19:28.025Z,99317.28
2023-05-13T00:23:31.041Z,99309.59
2023-05-13T00:27:35.305Z,99320.34
2023-05-13T00:31:38.165Z,99317.66
2023-05-13T00:35:40.907Z,99320.56
2023-05-13T00:39:43.649Z,99319.03
2023-05-13T00:49:09.921Z,99318.31
2023-05-13T00:53:14.046Z,99313.91
2023-05-13T00:57:16.716Z,99318.41
2023-05-13T01:01:26.575Z,99318.81
2023-05-13T01:05:34.826Z,99314.75
2023-05-13T01:09:45.323Z,99317.69
2023-05-13T01:13:49.956Z,99325.28
2023-05-13T01:17:56.136Z,99321.81
2023-05-13T01:22:00.339Z,99326.34
2023-05-13T01:26:02.993Z,99330.56
2023-05-13T01:30:06.939Z,99329.00
2023-05-13T01:34:11.460Z,99325.88
2023-05-13T01:38:15.938Z,99324.38
2023-05-13T01:42:18.771Z,99324.47
2023-05-13T01:46:21.682Z,99329.34
2023-05-13T01:50:24.538Z,99328.63
2023-05-13T01:54:28.676Z,99321.38
2023-05-13T01:58:31.354Z,99323.66
2023-05-13T02:02:34.371Z,99317.59
2023-05-13T02:06:37.125Z,99316.28
2023-05-13T02:10:41.100Z,99318.00
2023-05-13T02:14:43.707Z,99317.81
2023-05-13T02:18:46.447Z,99313.41
2023-05-13T02:22:49.240Z,99305.41
2023-05-13T02:26:54.474Z,99308.75
2023-05-13T02:30:57.130Z,99299.91
2023-05-13T02:34:59.755Z,99310.00
2023-05-13T02:39:02.406Z,99316.31
2023-05-13T02:43:06.398Z,99321.66
2023-05-13T02:47:09.031Z,99324.75
2023-05-13T02:51:11.663Z,99329.47
2023-05-13T02:55:14.414Z,99309.88
2023-05-13T02:59:18.434Z,99307.81
2023-05-13T03:03:21.205Z,99318.56
2023-05-13T03:07:25.024Z,99319.47
2023-05-13T03:11:28.081Z,99313.75
2023-05-13T03:15:32.084Z,99320.84
2023-05-13T03:19:35.785Z,99313.88
2023-05-13T03:23:38.639Z,99319.16
2023-05-13T03:27:41.263Z,99318.91
2023-05-13T03:31:45.430Z,99323.13
2023-05-13T03:35:49.634Z,99328.00
2023-05-13T03:39:52.337Z,99321.16
2023-05-13T03:43:55.060Z,99330.13
2023-05-13T03:47:59.071Z,99334.69
2023-05-13T03:52:01.746Z,99332.03
2023-05-13T03:56:04.634Z,99337.88
2023-05-13T04:00:09.383Z,99332.91
2023-05-13T04:04:13.370Z,99338.31
2023-05-13T04:08:16.381Z,99328.88
2023-05-13T04:12:19.096Z,99341.97
2023-05-13T04:16:22.569Z,99349.25
2023-05-13T04:20:26.813Z,99341.94
2023-05-13T04:24:29.442Z,99345.00
2023-05-13T04:28:32.502Z,99355.88
2023-05-13T04:32:35.403Z,99358.66
2023-05-13T04:36:39.530Z,99338.19
2023-05-13T04:40:42.216Z,99370.56
2023-05-13T04:44:44.936Z,99371.81
2023-05-13T04:48:48.321Z,99380.63
2023-05-13T04:52:54.815Z,99376.66
2023-05-13T04:56:57.611Z,99377.03
2023-05-13T05:01:00.811Z,99375.09
2023-05-13T05:05:03.426Z,99376.44
2023-05-13T05:09:07.781Z,99377.34
2023-05-13T05:13:10.627Z,99374.88
2023-05-13T05:17:13.324Z,99378.16
2023-05-13T05:21:18.216Z,99369.56
2023-05-13T05:25:22.299Z,99379.75
2023-05-13T05:29:25.066Z,99370.28
2023-05-13T05:33:27.924Z,99382.47
2023-05-13T05:37:31.329Z,99385.59
2023-05-13T05:41:35.157Z,99387.69
2023-05-13T05:45:38.264Z,99380.63
2023-05-13T05:49:41.026Z,99386.06
2023-05-13T05:53:43.666Z,99386.38
2023-05-13T05:57:47.856Z,99381.53
2023-05-13T06:01:50.550Z,99388.47
2023-05-13T06:05:53.599Z,99383.31
2023-05-13T06:09:56.379Z,99384.66
2023-05-13T06:14:00.522Z,99395.09
2023-05-13T06:18:05.587Z,99388.16
2023-05-13T06:22:08.283Z,99394.09
2023-05-13T06:26:10.962Z,99397.38
2023-05-13T06:30:15.696Z,99395.72
2023-05-13T06:34:18.456Z,99389.56
2023-05-13T06:38:21.426Z,99387.16
2023-05-13T06:42:24.073Z,99397.09
2023-05-13T06:46:28.117Z,99390.03
2023-05-13T06:50:31.100Z,99394.66
2023-05-13T06:54:33.729Z,99398.28
2023-05-13T06:58:36.382Z,99387.59
2023-05-13T07:02:40.462Z,99384.50
2023-05-13T07:06:43.073Z,99388.84
2023-05-13T07:10:45.869Z,99390.38
2023-05-13T07:14:48.363Z,99385.97
2023-05-13T07:18:54.116Z,99385.50
2023-05-13T07:22:56.796Z,99374.25
2023-05-13T07:26:59.477Z,99381.66
2023-05-13T07:31:02.100Z,99392.31
2023-05-13T07:35:07.074Z,99391.69
2023-05-13T07:39:09.690Z,99382.81
2023-05-13T07:43:13.534Z,99386.09
2023-05-13T07:47:16.176Z,99371.69
2023-05-13T07:51:20.627Z,99377.38
2023-05-13T07:55:23.690Z,99378.16
2023-05-13T07:59:26.476Z,99378.22
2023-05-13T08:03:29.228Z,99379.94
2023-05-13T08:07:33.434Z,99380.13
2023-05-13T08:11:36.674Z,99377.44
2023-05-13T08:15:39.318Z,99378.88
2023-05-13T08:19:41.946Z,99377.41
2023-05-13T08:23:46.339Z,99382.97
2023-05-13T08:27:49.050Z,99375.28
2023-05-13T08:31:53.539Z,99377.09
2023-05-13T08:35:56.450Z,99378.69
2023-05-13T08:40:01.644Z,99373.16
2023-05-13T08:44:06.819Z,99381.69
2023-05-13T08:48:11.190Z,99376.91
2023-05-13T08:52:13.950Z,99386.56
2023-05-13T08:56:17.994Z,99382.91
2023-05-13T09:00:21.713Z,99377.94
2023-05-13T09:04:25.225Z,99354.34
2023-05-13T09:08:27.935Z,99372.81
2023-05-13T09:12:49.185Z,99372.84
2023-05-13T09:16:52.686Z,99383.03
2023-05-13T09:20:55.342Z,99373.97
2023-05-13T09:24:57.990Z,99375.91
2023-05-13T09:29:18.588Z,99373.47
2023-05-13T09:33:21.222Z,99365.78
2023-05-13T09:37:25.617Z,99363.19
2023-05-13T09:41:28.512Z,99371.25
2023-05-13T09:45:33.275Z,99367.31
2023-05-13T09:49:35.904Z,99369.31
2023-05-13T09:53:38.621Z,99372.22
2023-05-13T09:57:41.872Z,99367.84
2023-05-13T10:01:46.790Z,99378.09
2023-05-13T10:05:50.848Z,99371.28
2023-05-13T10:09:57.062Z,99369.69
2023-05-13T10:14:01.882Z,99374.28
2023-05-13T10:18:07.676Z,99366.44
2023-05-13T10:22:10.918Z,99367.97
2023-05-13T10:26:14.133Z,99366.63
2023-05-13T10:30:17.790Z,99358.66
2023-05-13T10:34:22.558Z,99353.88
2023-05-13T10:38:33.528Z,99367.31
2023-05-13T10:42:42.807Z,99364.13
2023-05-13T10:46:45.494Z,99354.75
2023-05-13T10:50:55.851Z,99353.44
2023-05-13T10:55:01.783Z,99343.41
2023-05-13T10:59:05.378Z,99332.94
2023-05-13T11:03:16.341Z,99337.41
2023-05-13T11:07:20.826Z,99328.75
2023-05-13T11:11:41.307Z,99327.34
2023-05-13T11:15:49.057Z,99318.91
2023-05-13T11:19:52.450Z,99321.94
2023-05-13T11:23:59.980Z,99326.50
2023-05-13T11:28:02.592Z,99317.19
2023-05-13T11:32:06.923Z,99315.63
2023-05-13T11:36:10.053Z,99312.09
2023-05-13T11:40:24.906Z,99310.91
2023-05-13T11:44:27.374Z,99300.31
2023-05-13T11:48:30.152Z,99304.22
2023-05-13T11:52:33.752Z,99295.84
2023-05-13T11:56:38.171Z,99301.03
2023-05-13T12:00:41.183Z,99302.66
2023-05-13T12:04:45.554Z,99284.19
2023-05-13T12:08:48.477Z,99291.94
2023-05-13T12:12:52.940Z,99283.38
2023-05-13T12:16:56.008Z,99281.50
2023-05-13T12:20:58.857Z,99294.03
2023-05-13T12:25:03.675Z,99289.47
2023-05-13T12:29:07.955Z,99292.78
2023-05-13T12:33:15.198Z,99290.75
2023-05-13T12:37:18.242Z,99294.63
2023-05-13T12:41:20.947Z,99279.81
2023-05-13T12:45:28.422Z,99268.66
2023-05-13T12:49:31.108Z,99270.41
2023-05-13T12:53:33.710Z,99265.16
2023-05-13T12:57:36.201Z,99276.00
2023-05-13T13:01:40.476Z,99279.81
2023-05-13T13:05:43.392Z,99276.66
2023-05-13T13:09:46.317Z,99273.78
2023-05-13T13:13:50.923Z,99263.84
2023-05-13T13:17:54.945Z,99276.38
2023-05-13T13:21:57.655Z,99276.44
2023-05-13T13:26:00.635Z,99276.81
2023-05-13T13:30:03.649Z,99261.13
2023-05-13T13:34:09.784Z,99266.00
2023-05-13T13:38:12.431Z,99254.63
2023-05-13T13:42:15.103Z,99247.59
2023-05-13T13:46:17.827Z,99244.75
2023-05-13T13:50:22.040Z,99242.69
2023-05-13T13:54:24.812Z,99245.47
2023-05-13T13:58:27.348Z,99247.09
2023-05-13T14:02:30.283Z,99255.22
2023-05-13T14:06:34.382Z,99245.94
2023-05-13T14:10:37.001Z,99241.31
2023-05-13T14:14:39.610Z,99252.34
2023-05-13T14:18:43.266Z,99254.13
2023-05-13T14:22:47.267Z,99250.63
2023-05-13T14:26:50.123Z,99247.63
2023-05-13T14:30:52.738Z,99243.28
2023-05-13T14:34:55.357Z,99246.78
2023-05-13T14:38:59.670Z,99243.06
2023-05-13T14:43:02.313Z,99234.28
2023-05-13T14:47:04.956Z,99234.47
2023-05-13T14:51:07.602Z,99238.78
2023-05-13T14:55:12.955Z,99234.44
2023-05-13T14:59:15.631Z,99234.03
2023-05-13T15:03:18.219Z,99238.50
2023-05-13T15:07:21.251Z,99229.44
2023-05-13T15:11:27.134Z,99220.31
2023-05-13T15:15:30.052Z,99234.88
2023-05-13T15:19:32.738Z,99238.03
2023-05-13T15:23:35.450Z,99235.38
2023-05-13T15:27:39.403Z,99242.66
2023-05-13T15:31:41.998Z,99244.69
2023-05-13T15:35:44.597Z,99245.09
2023-05-13T15:39:47.101Z,99232.84
2023-05-13T15:43:51.148Z,99238.78
2023-05-13T15:47:53.919Z,99245.25
2023-05-13T15:51:57.798Z,99247.47
2023-05-13T15:56:00.767Z,99251.81
2023-05-13T16:00:05.488Z,99273.94
2023-05-13T16:04:08.484Z,99265.78
2023-05-13T16:08:11.200Z,99259.34
2023-05-13T16:12:14.025Z,99258.31
2023-05-13T16:16:18.110Z,99261.53
2023-05-13T16:20:21.101Z,99256.06
2023-05-13T16:24:23.915Z,99261.31
2023-05-13T16:28:26.868Z,99261.59
2023-05-13T16:32:32.139Z,99257.84
2023-05-13T16:36:35.017Z,99257.13
2023-05-13T16:40:37.785Z,99253.38
2023-05-13T16:44:40.604Z,99255.44
2023-05-13T16:48:44.842Z,99264.69
2023-05-13T16:52:47.604Z,99270.09
2023-05-13T16:56:50.482Z,99272.31
2023-05-13T17:00:53.314Z,99266.91
2023-05-13T17:04:57.425Z,99263.66
2023-05-13T17:09:00.150Z,99265.06
2023-05-13T17:13:02.928Z,99261.81
2023-05-13T17:17:06.149Z,99266.69
2023-05-13T17:21:10.254Z,99255.63
2023-05-13T17:25:12.934Z,99260.19
2023-05-13T17:29:15.559Z,99259.69
2023-05-13T17:33:18.166Z,99264.97
2023-05-13T17:37:22.451Z,99253.22
2023-05-13T17:41:25.419Z,99255.69
2023-05-13T17:45:28.647Z,99257.59
2023-05-13T17:49:31.245Z,99259.53
2023-05-13T17:53:35.390Z,99256.16
2023-05-13T17:57:38.181Z,99259.09
2023-05-13T18:01:40.830Z,99257.81
2023-05-13T18:05:43.572Z,99252.00
2023-05-13T18:09:49.917Z,99257.41
2023-05-13T18:13:53.204Z,99263.81
2023-05-13T18:17:55.970Z,99267.28
2023-05-13T18:21:58.698Z,99256.91
2023-05-13T18:26:03.017Z,99260.94
2023-05-13T18:30:06.628Z,99256.47
2023-05-13T18:34:09.242Z,99261.00
2023-05-13T18:38:11.879Z,99259.94
2023-05-13T18:42:15.837Z,99265.50
2023-05-13T18:46:18.518Z,99272.63
2023-05-13T18:50:21.732Z,99270.41
2023-05-13T18:54:25.681Z,99281.88
2023-05-13T18:58:30.702Z,99289.78
2023-05-13T19:02:33.630Z,99296.94
2023-05-13T19:06:37.914Z,99298.47
2023-05-13T19:10:40.986Z,99306.34
2023-05-13T19:14:45.094Z,99307.50
2023-05-13T19:18:48.214Z,99320.34
2023-05-13T19:22:50.852Z,99314.16
2023-05-13T19:26:53.576Z,99340.03
2023-05-13T19:30:57.598Z,99344.66
2023-05-13T19:35:00.352Z,99350.63
2023-05-13T19:39:03.045Z,99350.25
2023-05-13T19:43:06.377Z,99353.34
2023-05-13T19:47:10.179Z,99361.69
2023-05-13T19:51:12.841Z,99358.50
2023-05-13T19:55:15.533Z,99367.81
2023-05-13T19:59:18.172Z,99369.19
2023-05-13T20:03:22.234Z,99379.44
2023-05-13T20:07:25.316Z,99378.41
2023-05-13T20:11:27.964Z,99378.97
2023-05-13T20:15:30.589Z,99376.97
2023-05-13T20:19:34.561Z,99376.97
2023-05-13T20:23:37.219Z,99391.28
2023-05-13T20:27:39.861Z,99385.75
2023-05-13T20:31:43.167Z,99384.34
2023-05-13T20:35:47.390Z,99377.13
2023-05-13T20:39:50.012Z,99376.56
2023-05-13T20:43:52.717Z,99371.63
2023-05-13T20:47:59.141Z,99374.53
2023-05-13T20:52:05.734Z,99372.22
2023-05-13T20:56:09.996Z,99369.53
2023-05-13T21:00:13.960Z,99364.06
2023-05-13T21:04:17.135Z,99371.19
2023-05-13T21:08:21.471Z,99370.44
2023-05-13T21:12:24.290Z,99373.59
2023-05-13T21:16:26.981Z,99381.34
2023-05-13T21:20:29.648Z,99371.34
2023-05-13T21:24:33.670Z,99372.94
2023-05-13T21:28:36.348Z,99369.03
2023-05-13T21:32:39.018Z,99373.19
2023-05-13T21:36:41.691Z,99374.94
2023-05-13T21:40:45.666Z,99379.66
2023-05-13T21:44:48.293Z,99370.16
2023-05-13T21:48:50.948Z,99368.00
2023-05-13T21:52:53.626Z,99365.75
2023-05-13T21:56:57.605Z,99352.94
2023-05-13T22:01:01.323Z,99352.59
2023-05-13T22:05:04.011Z,99349.25
2023-05-13T22:09:06.870Z,99350.22
2023-05-13T22:13:10.985Z,99355.59
2023-05-13T22:17:13.724Z,99349.63
2023-05-13T22:21:16.426Z,99348.34
2023-05-13T22:25:19.142Z,99354.50
2023-05-13T22:29:23.258Z,99350.66
2023-05-13T22:33:25.948Z,99357.44
2023-05-13T22:37:28.628Z,99344.47
2023-05-13T22:41:31.236Z,99344.72
2023-05-13T22:45:35.230Z,99356.28
2023-05-13T22:49:37.839Z,99338.44
2023-05-13T22:53:40.457Z,99338.88
2023-05-13T22:57:43.082Z,99345.81
2023-05-13T23:01:47.108Z,99343.28
2023-05-13T23:05:49.772Z,99333.47
2023-05-13T23:09:52.390Z,99335.19
2023-05-13T23:13:55.150Z,99327.50
2023-05-13T23:17:59.197Z,99326.03
2023-05-13T23:22:01.875Z,99329.59
2023-05-13T23:26:05.758Z,99327.19
2023-05-13T23:30:09.618Z,99311.94
2023-05-13T23:34:13.588Z,99317.66
2023-05-13T23:38:16.169Z,99316.75
2023-05-13T23:42:18.785Z,99326.47
2023-05-13T23:46:21.469Z,99324.16
2023-05-13T23:50:25.706Z,99279.38
2023-05-13T23:54:28.549Z,99316.78
2023-05-13T23:58:31.177Z,99312.13
